首页
METAR-TAF:

METAR-TAF

机场 :

MidCoast Regional Airport / Wright Army Airfield

Hinesville, 喬治亞, 美国

纬度: 31-53N, 经度: 081-34W, 海拔: 14米

当前天气观测

该预报发布于1小时和2分钟前的08:56 UTC
风速5节,风向西转西南
温度 25°C
湿度 69%
气压 1019 hPa
能見度: 16.1公里
少量云层高于9000英尺

METAR: KLHW 260856Z AUTO 24005KT 10SM FEW090 25/19 A3010 RMK AO2 SLP195 T02450189 53003 $

时间: 05:58 (09:58 UTC)


TAF: 丢失

超过4000个机场的气象观测和天气预报(METAR&TAF报告)。

可查询的气象台以黄色和红色小点在地图上表示。

将鼠标移到小点上方,可查看气象台名称。

然后点击查看天气观测和预报。

如需切换地图:点击带黑十字的绿色按钮放大地图;点击带横线的绿色按钮缩小地图;或者点击绿色箭头查看邻近地区的地图。


METAR-TAF: